Time;durP1;ratioP1;P1;durP2;ratioP2;P2;SDS_P1;SDS_P2;PMS_P1;PMS_P2;Temp;Humidity;BMP_temperature;BMP_pressure;BME280_temperature;BME280_humidity;BME280_pressure;Samples;Min_cycle;Max_cycle;Signal;HPM_P1;HPM_P2
2022/09/04 00:00:17;;;;;;;7.95;1.65;;;14.00;99.90;;;;;;5033256;28;20026;-69
2022/09/04 00:03:14;;;;;;;4.20;1.48;;;14.00;99.90;;;;;;5033976;28;20063;-70
2022/09/04 00:05:54;;;;;;;3.10;1.33;;;14.00;99.90;;;;;;5033067;28;20060;-70
2022/09/04 00:08:29;;;;;;;7.18;2.15;;;13.90;99.90;;;;;;5033427;28;20374;-70
2022/09/04 00:11:18;;;;;;;14.82;1.67;;;13.80;99.90;;;;;;5036925;28;20078;-70
2022/09/04 00:13:57;;;;;;;5.65;1.67;;;13.80;99.90;;;;;;5006248;28;20064;-70
2022/09/04 00:16:49;;;;;;;7.07;2.10;;;13.70;99.90;;;;;;5037002;28;20076;-70
2022/09/04 00:19:23;;;;;;;5.82;1.45;;;13.60;99.90;;;;;;5030863;28;20029;-70
2022/09/04 00:21:51;;;;;;;;;;;13.50;99.90;;;;;;5037779;28;20433;-70
2022/09/04 00:24:21;;;;;;;4.32;1.58;;;13.40;99.90;;;;;;5036874;28;20299;-70
2022/09/04 00:27:08;;;;;;;2.97;2.00;;;13.40;99.90;;;;;;5037066;28;20064;-70
2022/09/04 00:29:56;;;;;;;6.05;1.88;;;13.40;99.90;;;;;;5036685;28;20029;-70
2022/09/04 00:32:30;;;;;;;7.50;2.38;;;13.30;99.90;;;;;;5036240;28;20032;-70
2022/09/04 00:35:13;;;;;;;4.38;1.60;;;13.30;99.90;;;;;;5036747;28;20022;-70
2022/09/04 00:37:47;;;;;;;7.05;2.45;;;13.20;99.90;;;;;;5036501;28;20029;-70
2022/09/04 00:40:36;;;;;;;11.52;2.40;;;13.20;99.90;;;;;;5035931;28;20032;-70
2022/09/04 00:43:19;;;;;;;6.80;1.90;;;13.30;99.90;;;;;;5036891;28;20041;-70
2022/09/04 00:45:57;;;;;;;10.88;1.92;;;13.30;99.90;;;;;;5036825;28;20014;-70
2022/09/04 00:48:43;;;;;;;13.25;2.25;;;13.30;99.90;;;;;;5035722;28;20026;-70
2022/09/04 00:51:37;;;;;;;6.10;1.70;;;13.30;99.90;;;;;;5036781;28;20029;-70
2022/09/04 00:54:08;;;;;;;6.57;1.83;;;13.20;99.90;;;;;;5036374;28;20473;-70
2022/09/04 00:56:58;;;;;;;7.00;1.77;;;13.10;99.90;;;;;;5036034;28;20089;-70
2022/09/04 00:59:54;;;;;;;5.97;1.67;;;13.10;99.90;;;;;;5036375;28;20416;-70
2022/09/04 01:02:35;;;;;;;9.95;2.30;;;13.10;99.90;;;;;;5035676;28;20037;-70
2022/09/04 01:05:20;;;;;;;9.30;1.77;;;13.00;99.90;;;;;;5035835;28;20065;-70
2022/09/04 01:08:16;;;;;;;8.52;2.33;;;13.10;99.90;;;;;;5036260;28;20021;-70
2022/09/04 01:10:53;;;;;;;7.05;2.33;;;13.00;99.90;;;;;;5036158;28;20036;-70
2022/09/04 01:13:35;;;;;;;6.30;1.90;;;13.00;99.90;;;;;;5035415;28;20022;-70
2022/09/04 01:16:09;;;;;;;4.78;2.38;;;12.90;99.90;;;;;;5034400;28;20482;-70
2022/09/04 01:19:01;;;;;;;8.65;2.92;;;13.00;99.90;;;;;;5034516;28;20032;-70
2022/09/04 01:21:45;;;;;;;10.65;2.60;;;13.00;99.90;;;;;;5035018;28;20021;-70
2022/09/04 01:24:22;;;;;;;;;;;13.00;99.90;;;;;;5035978;28;20021;-70
2022/09/04 01:27:25;;;;;;;10.68;3.13;;;13.00;99.90;;;;;;5035389;28;19928;-70
2022/09/04 01:30:10;;;;;;;13.02;2.85;;;13.00;99.90;;;;;;5035458;28;20057;-70
2022/09/04 01:32:58;;;;;;;6.85;2.38;;;13.00;99.90;;;;;;5034851;28;20029;-70
2022/09/04 01:35:54;;;;;;;6.93;1.88;;;13.00;99.90;;;;;;5035507;28;20068;-70
2022/09/04 01:38:54;;;;;;;10.73;2.92;;;12.90;99.90;;;;;;5035619;28;20426;-70
2022/09/04 01:41:55;;;;;;;8.38;1.63;;;12.90;99.90;;;;;;5003153;28;20033;-70
2022/09/04 01:44:22;;;;;;;8.65;2.55;;;12.80;99.90;;;;;;5034602;28;20024;-70
2022/09/04 01:47:21;;;;;;;9.10;1.75;;;12.80;99.90;;;;;;5035372;28;20394;-70
2022/09/04 01:49:57;;;;;;;5.22;2.03;;;12.80;99.90;;;;;;5035457;28;20104;-70
2022/09/04 01:52:47;;;;;;;3.40;1.88;;;12.70;99.90;;;;;;5034824;28;20029;-70
2022/09/04 01:55:35;;;;;;;6.70;2.28;;;12.60;99.90;;;;;;5035140;28;20057;-70
2022/09/04 01:58:34;;;;;;;6.68;2.58;;;12.60;99.90;;;;;;5035274;28;20112;-71
2022/09/04 02:01:17;;;;;;;6.45;2.47;;;12.50;99.90;;;;;;5034517;28;20029;-69
2022/09/04 02:04:08;;;;;;;7.23;2.00;;;12.50;99.90;;;;;;5035064;28;20474;-70
2022/09/04 02:06:52;;;;;;;6.05;1.85;;;12.40;99.90;;;;;;5035397;28;20268;-68
2022/09/04 02:09:40;;;;;;;5.00;2.28;;;12.40;99.90;;;;;;5034672;28;20039;-68
2022/09/04 02:12:35;;;;;;;2.55;1.65;;;12.40;99.90;;;;;;5035054;28;20022;-68
2022/09/04 02:15:29;;;;;;;4.18;1.75;;;12.30;99.90;;;;;;5034001;28;20033;-68
2022/09/04 02:18:05;;;;;;;6.30;2.97;;;12.20;99.90;;;;;;5025777;28;20452;-68
2022/09/04 02:20:31;;;;;;;8.57;2.53;;;12.10;99.90;;;;;;5034563;28;20022;-68
2022/09/04 02:23:05;;;;;;;4.63;1.85;;;12.00;99.90;;;;;;5034650;28;20580;-68
2022/09/04 02:25:58;;;;;;;3.35;1.60;;;12.00;99.90;;;;;;5034592;28;20022;-68
2022/09/04 02:28:36;;;;;;;4.70;1.98;;;11.90;99.90;;;;;;5035413;28;20033;-68
2022/09/04 02:31:24;;;;;;;3.17;1.60;;;11.90;99.90;;;;;;5034507;28;20078;-68
2022/09/04 02:33:55;;;;;;;6.20;2.25;;;11.80;99.90;;;;;;5034625;28;20018;-68
2022/09/04 02:36:47;;;;;;;4.88;1.70;;;11.80;99.90;;;;;;5033968;28;20029;-68
2022/09/04 02:39:29;;;;;;;7.38;1.77;;;11.80;99.90;;;;;;5034376;28;20386;-68
2022/09/04 02:42:05;;;;;;;6.25;1.70;;;11.70;99.90;;;;;;5033526;28;20101;-68
2022/09/04 02:44:55;;;;;;;6.45;2.88;;;11.70;99.90;;;;;;5034537;28;20049;-68
2022/09/04 02:47:44;;;;;;;3.97;1.35;;;11.70;99.90;;;;;;5034354;28;20355;-68
2022/09/04 02:50:31;;;;;;;2.88;1.90;;;11.70;99.90;;;;;;5034462;28;20029;-68
2022/09/04 02:53:19;;;;;;;4.07;1.63;;;11.70;99.90;;;;;;5034072;28;20041;-68
2022/09/04 02:56:19;;;;;;;7.15;1.85;;;11.70;99.90;;;;;;5033309;28;20017;-68
2022/09/04 02:59:23;;;;;;;4.40;2.17;;;11.80;99.90;;;;;;5032481;28;20029;-68
2022/09/04 03:01:58;;;;;;;8.23;2.03;;;11.80;99.90;;;;;;5034056;28;20071;-68
2022/09/04 03:04:48;;;;;;;7.43;2.25;;;11.80;99.90;;;;;;5033021;28;20029;-68
2022/09/04 03:07:34;;;;;;;2.63;1.85;;;11.90;99.90;;;;;;5033969;28;20018;-68
2022/09/04 03:10:14;;;;;;;5.43;1.92;;;11.90;99.90;;;;;;5033811;28;20033;-68
2022/09/04 03:12:50;;;;;;;5.90;2.00;;;12.00;99.90;;;;;;5033750;28;20513;-68
2022/09/04 03:15:50;;;;;;;3.75;1.90;;;12.10;99.90;;;;;;5032242;28;20048;-68
2022/09/04 03:18:40;;;;;;;6.88;1.85;;;12.10;99.90;;;;;;5033451;28;20088;-68
2022/09/04 03:21:15;;;;;;;2.38;1.58;;;12.10;99.90;;;;;;5033484;28;20017;-68
2022/09/04 03:23:53;;;;;;;4.65;1.77;;;12.20;99.90;;;;;;5033517;28;20028;-68
2022/09/04 03:26:43;;;;;;;3.78;1.55;;;12.20;99.90;;;;;;5033367;28;20029;-68
2022/09/04 03:29:38;;;;;;;2.67;1.65;;;12.20;99.90;;;;;;5032994;28;20092;-68
2022/09/04 03:32:16;;;;;;;5.65;1.98;;;12.20;99.90;;;;;;5033323;28;20025;-68
2022/09/04 03:34:53;;;;;;;6.10;2.65;;;12.20;99.90;;;;;;5033393;28;20055;-68
2022/09/04 03:37:34;;;;;;;5.00;1.98;;;12.20;99.90;;;;;;5033594;28;20545;-68
2022/09/04 03:40:18;;;;;;;6.15;1.70;;;12.10;99.90;;;;;;5033089;28;20029;-68
2022/09/04 03:43:14;;;;;;;5.13;1.70;;;12.00;99.90;;;;;;5033518;28;20470;-68
2022/09/04 03:46:11;;;;;;;2.20;1.45;;;11.90;99.90;;;;;;5037504;28;20021;-68
2022/09/04 03:49:09;;;;;;;11.23;1.98;;;11.80;99.90;;;;;;5017463;28;20037;-68
2022/09/04 03:51:44;;;;;;;4.07;2.00;;;11.60;99.90;;;;;;5037275;28;20028;-68
2022/09/04 03:54:41;;;;;;;5.18;1.80;;;11.50;99.90;;;;;;5037089;28;20033;-68
2022/09/04 03:57:27;;;;;;;9.13;1.90;;;11.40;99.90;;;;;;5036638;28;20478;-68
2022/09/04 04:00:02;;;;;;;4.78;1.77;;;11.40;99.90;;;;;;5037535;28;20033;-68
2022/09/04 04:02:55;;;;;;;2.28;1.45;;;11.30;99.90;;;;;;5037163;28;20477;-68
2022/09/04 04:05:32;;;;;;;7.43;2.10;;;11.20;99.90;;;;;;5036856;28;20038;-68
2022/09/04 04:08:22;;;;;;;3.72;1.55;;;11.20;99.90;;;;;;5036947;28;20032;-68
2022/09/04 04:11:32;;;;;;;4.28;1.55;;;11.20;99.90;;;;;;5036457;28;20572;-68
2022/09/04 04:14:19;;;;;;;8.27;1.88;;;11.10;99.90;;;;;;4975975;28;20105;-68
2022/09/04 04:17:19;;;;;;;2.50;1.58;;;11.10;99.90;;;;;;5032456;28;20030;-68
2022/09/04 04:20:12;;;;;;;4.28;1.70;;;11.10;99.90;;;;;;5029262;28;20041;-68
2022/09/04 04:22:50;;;;;;;8.27;2.30;;;11.00;99.90;;;;;;5037361;28;20021;-68
2022/09/04 04:25:34;;;;;;;2.95;1.77;;;11.00;99.90;;;;;;5036051;28;20014;-69
2022/09/04 04:28:37;;;;;;;7.22;2.40;;;11.00;99.90;;;;;;5036966;28;20351;-68
2022/09/04 04:31:17;;;;;;;5.80;1.75;;;11.00;99.90;;;;;;5036590;28;20393;-68
2022/09/04 04:33:55;;;;;;;5.28;1.90;;;10.90;99.90;;;;;;5036644;28;20021;-68
2022/09/04 04:36:27;;;;;;;8.18;1.92;;;10.90;99.90;;;;;;5036356;28;20021;-68
2022/09/04 04:39:23;;;;;;;5.63;1.90;;;10.80;99.90;;;;;;5036067;28;20022;-68
2022/09/04 04:42:04;;;;;;;5.82;1.88;;;10.70;99.90;;;;;;5036402;28;20036;-68
2022/09/04 04:47:48;;;;;;;8.02;2.33;;;10.70;99.90;;;;;;5035774;28;20428;-68
2022/09/04 04:50:58;;;;;;;8.68;2.67;;;10.60;99.90;;;;;;5036890;28;20424;-68
2022/09/04 04:53:42;;;;;;;6.72;2.05;;;10.60;99.90;;;;;;5034721;28;20069;-68
2022/09/04 04:56:16;;;;;;;3.65;1.90;;;10.60;99.90;;;;;;5035409;28;20034;-68
2022/09/04 04:59:06;;;;;;;5.60;1.88;;;10.60;99.90;;;;;;5036199;28;20026;-68
2022/09/04 05:01:57;;;;;;;7.88;1.95;;;10.60;99.90;;;;;;5035606;28;20021;-68
2022/09/04 05:04:39;;;;;;;8.52;2.30;;;10.70;99.90;;;;;;5035898;28;20029;-68
2022/09/04 05:07:33;;;;;;;8.27;1.70;;;10.70;99.90;;;;;;5036351;28;20060;-68
2022/09/04 05:10:13;;;;;;;3.13;1.55;;;10.80;99.90;;;;;;5035351;28;20022;-68
2022/09/04 05:13:11;;;;;;;2.97;1.67;;;10.90;99.90;;;;;;5036011;28;20474;-68
2022/09/04 05:16:02;;;;;;;3.72;1.60;;;11.00;99.90;;;;;;5035532;28;20021;-68
2022/09/04 05:18:40;;;;;;;4.03;1.60;;;11.10;99.90;;;;;;5035739;28;20033;-68
2022/09/04 05:21:06;;;;;;;7.38;2.28;;;11.20;99.90;;;;;;5035853;28;20021;-68
2022/09/04 05:23:50;;;;;;;3.65;1.92;;;11.20;99.90;;;;;;5035281;28;20116;-68
2022/09/04 05:26:23;;;;;;;3.58;1.73;;;11.40;99.90;;;;;;5035787;28;20025;-68
2022/09/04 05:29:26;;;;;;;3.60;1.83;;;11.50;99.90;;;;;;5035558;28;20041;-68
2022/09/04 05:32:04;;;;;;;13.27;2.10;;;11.60;99.90;;;;;;5035595;28;20481;-68
2022/09/04 05:34:47;;;;;;;4.50;2.10;;;11.80;99.90;;;;;;5035566;28;20029;-68
2022/09/04 05:37:26;;;;;;;6.00;1.80;;;11.90;99.90;;;;;;5035525;28;20032;-68
2022/09/04 05:40:03;;;;;;;5.82;2.20;;;12.00;99.90;;;;;;5035804;28;20028;-68
2022/09/04 05:42:58;;;;;;;6.95;2.35;;;12.10;99.90;;;;;;5035376;28;20026;-68
2022/09/04 05:45:28;;;;;;;4.28;2.17;;;12.30;99.90;;;;;;5025569;28;20544;-68
2022/09/04 05:48:15;;;;;;;5.65;2.25;;;12.40;99.90;;;;;;5035463;28;20539;-68
2022/09/04 05:50:59;;;;;;;5.70;2.83;;;12.50;99.90;;;;;;5035643;28;20025;-68
2022/09/04 05:53:51;;;;;;;6.63;2.05;;;12.70;99.90;;;;;;5035396;28;20482;-68
2022/09/04 05:56:36;;;;;;;7.55;1.92;;;12.70;99.90;;;;;;5011549;28;20045;-68
2022/09/04 05:59:24;;;;;;;9.18;2.40;;;12.90;99.90;;;;;;5035172;28;20060;-68
2022/09/04 06:02:25;;;;;;;7.25;2.45;;;13.00;99.90;;;;;;5034928;28;20061;-68
2022/09/04 06:04:56;;;;;;;6.78;2.53;;;13.20;99.90;;;;;;5018872;28;20091;-69
2022/09/04 06:07:59;;;;;;;5.90;2.95;;;13.30;99.90;;;;;;5033280;28;20029;-68
2022/09/04 06:11:22;;;;;;;7.55;2.80;;;13.50;99.90;;;;;;5034805;28;20442;-68
2022/09/04 06:17:22;;;;;;;10.63;4.82;;;13.90;99.90;;;;;;5093649;27;21411;-68
2022/09/04 06:20:13;;;;;;;16.43;6.60;;;14.00;99.90;;;;;;5028187;28;20041;-68
2022/09/04 06:22:51;;;;;;;9.88;4.15;;;14.20;99.90;;;;;;5030821;28;20017;-68
2022/09/04 06:25:35;;;;;;;8.15;3.10;;;14.40;99.90;;;;;;5030695;28;20029;-67
2022/09/04 06:28:05;;;;;;;;;;;14.50;99.90;;;;;;5030219;28;20164;-69
2022/09/04 06:30:47;;;;;;;9.50;5.63;;;14.60;99.90;;;;;;5030728;28;19905;-68
2022/09/04 06:33:26;;;;;;;11.30;3.38;;;14.70;99.90;;;;;;5030994;28;20030;-68
2022/09/04 06:36:22;;;;;;;8.75;3.15;;;14.80;99.90;;;;;;5030151;28;20022;-68
2022/09/04 06:39:06;;;;;;;12.05;5.85;;;15.00;99.90;;;;;;5030138;28;20045;-67
2022/09/04 06:41:53;;;;;;;3.10;2.10;;;15.20;99.90;;;;;;5030334;28;20086;-67
2022/09/04 06:44:57;;;;;;;6.55;3.78;;;15.40;99.90;;;;;;5030536;28;20549;-68
2022/09/04 06:47:54;;;;;;;6.45;2.50;;;15.70;99.90;;;;;;5029162;28;20482;-68
2022/09/04 06:50:20;;;;;;;9.70;1.85;;;15.90;99.90;;;;;;5028951;28;20577;-68
2022/09/04 06:52:55;;;;;;;3.13;1.58;;;16.20;99.90;;;;;;5030627;28;20030;-68
2022/09/04 06:55:46;;;;;;;5.07;1.88;;;16.30;99.90;;;;;;5029801;28;20079;-68
2022/09/04 06:58:41;;;;;;;9.55;2.35;;;16.50;99.90;;;;;;5030414;28;20481;-68
2022/09/04 07:01:14;;;;;;;4.07;1.98;;;16.70;99.90;;;;;;5030301;28;20017;-68
2022/09/04 07:03:54;;;;;;;2.75;1.45;;;16.90;99.90;;;;;;5030128;28;20486;-68
2022/09/04 07:06:33;;;;;;;7.43;2.45;;;17.10;99.90;;;;;;5029404;28;20026;-68
2022/09/04 07:09:15;;;;;;;6.57;2.58;;;17.30;99.90;;;;;;5030393;28;20105;-68
2022/09/04 07:12:07;;;;;;;3.90;1.42;;;17.50;99.90;;;;;;5030077;28;20034;-68
2022/09/04 07:14:45;;;;;;;6.90;1.60;;;17.60;99.90;;;;;;5030399;28;20041;-68
2022/09/04 07:17:22;;;;;;;5.03;1.38;;;17.80;99.90;;;;;;5031008;28;20097;-68
2022/09/04 07:20:39;;;;;;;6.00;1.60;;;18.00;99.90;;;;;;5030002;28;20026;-68
2022/09/04 07:23:25;;;;;;;10.60;1.80;;;18.10;99.90;;;;;;5027691;28;20026;-67
2022/09/04 07:26:02;;;;;;;2.42;1.10;;;18.30;99.90;;;;;;5028065;28;20403;-68
2022/09/04 07:28:49;;;;;;;4.25;2.00;;;18.40;99.90;;;;;;5015993;28;20034;-68
2022/09/04 07:31:38;;;;;;;4.03;1.65;;;18.60;99.90;;;;;;5016284;28;20084;-69
2022/09/04 07:34:25;;;;;;;2.60;1.33;;;18.70;99.90;;;;;;5016591;28;20027;-69
2022/09/04 07:37:12;;;;;;;4.35;1.70;;;18.80;99.90;;;;;;5016488;28;20076;-70
2022/09/04 07:39:55;;;;;;;2.00;1.55;;;19.00;99.90;;;;;;5014639;28;20018;-69
2022/09/04 07:42:25;;;;;;;3.70;1.50;;;19.10;99.90;;;;;;5017033;28;20057;-69
2022/09/04 07:45:00;;;;;;;5.32;1.70;;;19.30;99.90;;;;;;5016140;28;20105;-69
2022/09/04 07:47:45;;;;;;;3.80;1.20;;;19.40;99.90;;;;;;5016247;28;20014;-69
2022/09/04 07:50:34;;;;;;;4.30;1.92;;;19.50;99.90;;;;;;5015843;28;20108;-70
2022/09/04 07:53:28;;;;;;;2.38;1.42;;;19.70;99.90;;;;;;5016279;28;20049;-70
2022/09/04 07:56:05;;;;;;;4.85;1.83;;;20.00;99.90;;;;;;5016070;28;20026;-70
2022/09/04 07:58:53;;;;;;;3.55;1.63;;;20.10;99.90;;;;;;5016651;28;20018;-70
2022/09/04 08:01:50;;;;;;;4.93;1.70;;;20.20;99.90;;;;;;5015942;28;20030;-70
2022/09/04 08:04:53;;;;;;;5.47;1.58;;;20.30;99.90;;;;;;5015391;28;20030;-69
2022/09/04 08:07:47;;;;;;;8.30;2.20;;;20.40;99.90;;;;;;5001556;23;20051;-68
2022/09/04 08:10:31;;;;;;;6.20;1.83;;;20.60;99.90;;;;;;4976993;28;20082;-67
2022/09/04 08:13:21;;;;;;;4.82;1.92;;;20.70;99.90;;;;;;4991490;28;20540;-67
2022/09/04 08:15:59;;;;;;;3.22;2.00;;;20.80;99.90;;;;;;4995820;28;20536;-67
2022/09/04 08:18:35;;;;;;;3.60;1.70;;;21.00;99.90;;;;;;4980068;28;20027;-67
2022/09/04 08:21:07;;;;;;;8.95;1.83;;;21.10;99.90;;;;;;4976429;28;20022;-66
2022/09/04 08:23:47;;;;;;;8.30;1.88;;;21.20;99.90;;;;;;4976308;28;20102;-67
2022/09/04 08:26:39;;;;;;;6.82;2.30;;;21.40;99.90;;;;;;4976767;28;20114;-67
2022/09/04 08:29:41;;;;;;;5.22;2.05;;;21.60;99.90;;;;;;4986983;28;20101;-67
2022/09/04 08:32:45;;;;;;;13.20;2.40;;;21.70;99.90;;;;;;4996047;28;20038;-67
2022/09/04 08:35:32;;;;;;;5.30;1.85;;;21.70;99.90;;;;;;4982468;28;20041;-67
2022/09/04 08:38:25;;;;;;;4.00;1.90;;;21.90;99.90;;;;;;4994732;28;20026;-66
2022/09/04 08:41:27;;;;;;;8.18;1.85;;;22.10;99.90;;;;;;4995694;28;20361;-67
2022/09/04 08:44:01;;;;;;;4.93;2.03;;;22.30;99.90;;;;;;4995558;28;20030;-67
2022/09/04 08:46:55;;;;;;;8.73;2.15;;;22.40;99.90;;;;;;4994659;28;20037;-64
2022/09/04 08:49:53;;;;;;;3.97;1.35;;;22.10;99.90;;;;;;4995360;28;20030;-64
2022/09/04 08:52:56;;;;;;;10.27;2.15;;;21.90;99.90;;;;;;4995402;28;20413;-64
2022/09/04 08:55:45;;;;;;;7.65;2.05;;;21.90;99.90;;;;;;4994752;28;20030;-65
2022/09/04 08:58:23;;;;;;;5.35;2.10;;;22.60;99.90;;;;;;4995458;28;20045;-65
2022/09/04 09:01:09;;;;;;;5.60;1.85;;;23.30;99.90;;;;;;4995385;28;20475;-65
2022/09/04 09:03:56;;;;;;;5.80;1.38;;;23.60;99.90;;;;;;4995071;28;20019;-65
2022/09/04 09:06:33;;;;;;;3.40;1.70;;;23.80;99.90;;;;;;4994758;28;20034;-65
2022/09/04 09:09:31;;;;;;;2.95;1.27;;;24.10;99.90;;;;;;4995163;28;20077;-64
2022/09/04 09:12:15;;;;;;;9.48;2.08;;;23.70;99.90;;;;;;4995162;28;20034;-64
2022/09/04 09:15:01;;;;;;;4.30;2.00;;;23.10;99.90;;;;;;4994888;28;20386;-64
2022/09/04 09:17:59;;;;;;;8.18;1.48;;;22.90;99.90;;;;;;4964095;28;20053;-64
2022/09/04 09:20:49;;;;;;;9.32;2.20;;;22.90;99.90;;;;;;4995049;28;20101;-64
2022/09/04 09:24:06;;;;;;;3.55;1.50;;;22.80;99.90;;;;;;4994756;28;20418;-64
2022/09/04 09:26:58;;;;;;;5.65;1.38;;;23.20;99.90;;;;;;4961708;28;20387;-64
2022/09/04 09:29:49;;;;;;;5.38;2.10;;;23.00;99.90;;;;;;4986548;28;20042;-64
2022/09/04 09:32:33;;;;;;;5.47;1.70;;;23.10;99.90;;;;;;4994622;28;20034;-64
2022/09/04 09:35:07;;;;;;;16.88;2.05;;;23.20;99.90;;;;;;4994625;28;20034;-66
2022/09/04 09:37:52;;;;;;;5.55;2.00;;;23.50;99.90;;;;;;4994646;28;20518;-66
2022/09/04 09:40:43;;;;;;;4.43;1.92;;;23.90;99.90;;;;;;4994215;28;20030;-65
2022/09/04 09:43:47;;;;;;;4.50;2.10;;;24.00;99.90;;;;;;4994757;28;20031;-66
2022/09/04 09:46:30;;;;;;;4.22;2.08;;;24.20;99.90;;;;;;4994542;28;20033;-65
2022/09/04 09:49:23;;;;;;;4.45;1.65;;;24.50;99.90;;;;;;4994017;28;20030;-64
2022/09/04 09:52:13;;;;;;;4.32;2.10;;;24.90;99.90;;;;;;4994146;28;20026;-64
2022/09/04 09:55:06;;;;;;;5.57;2.60;;;25.10;99.90;;;;;;4994118;28;20410;-64
2022/09/04 09:57:44;;;;;;;;;;;25.30;99.90;;;;;;4994422;28;20146;-64
2022/09/04 10:00:24;;;;;;;18.90;2.03;;;25.40;99.90;;;;;;4993768;28;19920;-65
2022/09/04 10:03:25;;;;;;;12.50;2.65;;;25.30;99.90;;;;;;4994398;28;20031;-64
2022/09/04 10:06:18;;;;;;;6.05;2.15;;;25.40;99.90;;;;;;4994172;28;20029;-65
2022/09/04 10:09:28;;;;;;;11.25;2.45;;;25.40;99.90;;;;;;4994371;28;20120;-64
2022/09/04 10:12:22;;;;;;;3.45;2.15;;;25.60;99.90;;;;;;4993890;28;20066;-64
2022/09/04 10:15:15;;;;;;;5.63;2.55;;;25.70;99.90;;;;;;4994487;28;20027;-64
2022/09/04 10:17:59;;;;;;;9.55;2.58;;;26.00;99.90;;;;;;4994355;28;20030;-64
2022/09/04 10:20:49;;;;;;;4.70;2.15;;;26.20;99.90;;;;;;4993956;28;20022;-64
2022/09/04 10:23:23;;;;;;;12.40;2.90;;;26.40;99.90;;;;;;4993697;28;20172;-65
2022/09/04 10:26:47;;;;;;;8.90;2.55;;;26.50;99.90;;;;;;4994146;28;20526;-64
2022/09/04 10:29:35;;;;;;;10.48;2.80;;;26.30;99.90;;;;;;4972125;28;20137;-64
2022/09/04 10:32:30;;;;;;;5.32;2.30;;;26.40;99.90;;;;;;4995188;28;20057;-64
2022/09/04 10:35:14;;;;;;;7.85;2.65;;;26.50;99.90;;;;;;4993502;28;20026;-64
2022/09/04 10:38:11;;;;;;;6.05;2.40;;;26.70;99.90;;;;;;4993901;28;20470;-64
2022/09/04 10:40:41;;;;;;;18.10;3.30;;;26.90;99.90;;;;;;4994095;28;20117;-64
2022/09/04 10:43:48;;;;;;;9.30;2.85;;;26.90;99.90;;;;;;4994000;28;20157;-64
2022/09/04 10:46:26;;;;;;;7.15;2.60;;;26.80;99.90;;;;;;4993936;28;20031;-65
2022/09/04 10:49:06;;;;;;;9.40;3.13;;;26.90;99.90;;;;;;4993433;28;20030;-64
2022/09/04 10:51:55;;;;;;;3.90;2.60;;;27.10;99.90;;;;;;4993720;28;20081;-64
2022/09/04 10:54:34;;;;;;;7.75;3.05;;;27.10;99.90;;;;;;4993935;28;20034;-64
2022/09/04 10:57:20;;;;;;;7.95;3.00;;;27.40;99.90;;;;;;4993333;28;20026;-65
2022/09/04 11:00:10;;;;;;;7.40;2.00;;;27.50;99.90;;;;;;4993864;28;20027;-64
2022/09/04 11:03:02;;;;;;;4.80;2.78;;;27.60;99.90;;;;;;4995166;28;20072;-65
2022/09/04 11:05:49;;;;;;;8.25;2.58;;;27.60;99.90;;;;;;4997484;28;20042;-65
2022/09/04 11:08:41;;;;;;;11.13;2.20;;;27.80;99.90;;;;;;4996613;28;20181;-65
2022/09/04 11:11:06;;;;;;;9.48;2.67;;;27.90;99.90;;;;;;4997753;28;20038;-64
2022/09/04 11:13:44;;;;;;;5.53;2.60;;;28.10;99.90;;;;;;4997170;28;20033;-65
2022/09/04 11:16:19;;;;;;;6.18;2.58;;;28.00;99.90;;;;;;4997491;28;20034;-64
2022/09/04 11:19:19;;;;;;;7.60;2.97;;;27.90;99.90;;;;;;4997309;28;20409;-64
2022/09/04 11:21:57;;;;;;;14.45;2.92;;;27.70;99.90;;;;;;4996910;28;20027;-65
2022/09/04 11:24:52;;;;;;;6.57;3.03;;;27.80;99.90;;;;;;4997257;28;20026;-65
2022/09/04 11:27:48;;;;;;;8.73;2.90;;;27.70;99.90;;;;;;4996783;28;20434;-64
2022/09/04 11:30:27;;;;;;;5.40;2.83;;;27.30;99.90;;;;;;4996989;28;20026;-65
2022/09/04 11:33:20;;;;;;;6.82;3.10;;;27.20;99.90;;;;;;4996852;28;20031;-64
2022/09/04 11:36:13;;;;;;;4.45;2.47;;;27.70;99.90;;;;;;4970642;28;20042;-64
2022/09/04 11:38:44;;;;;;;7.20;3.03;;;27.70;99.90;;;;;;4996302;28;20101;-65
2022/09/04 11:41:37;;;;;;;8.52;2.88;;;27.40;99.90;;;;;;4997053;28;20029;-65
2022/09/04 11:44:38;;;;;;;6.63;3.08;;;27.20;99.90;;;;;;4969636;28;20035;-64
2022/09/04 11:47:24;;;;;;;5.18;2.55;;;26.90;99.90;;;;;;4935893;29;20114;-65
2022/09/04 11:50:13;;;;;;;4.20;2.42;;;27.80;99.90;;;;;;4992318;28;20038;-65
2022/09/04 11:53:00;;;;;;;9.35;2.58;;;28.70;99.10;;;;;;4996753;28;20022;-64
2022/09/04 11:56:04;;;;;;;9.30;2.72;;;28.80;98.40;;;;;;4996770;28;20026;-65
2022/09/04 11:59:06;;;;;;;9.75;2.75;;;28.50;97.60;;;;;;4996386;28;20030;-65
2022/09/04 12:02:19;;;;;;;7.68;3.22;;;28.10;98.00;;;;;;4996528;28;20105;-64
2022/09/04 12:05:02;;;;;;;7.47;2.90;;;27.70;97.80;;;;;;4996362;28;20057;-65
2022/09/04 12:08:01;;;;;;;9.27;3.00;;;27.70;97.80;;;;;;4996683;28;20085;-65
2022/09/04 12:11:00;;;;;;;6.60;2.92;;;28.10;97.40;;;;;;4995838;28;20040;-65
2022/09/04 12:13:46;;;;;;;6.05;2.65;;;27.70;97.10;;;;;;4996256;28;20522;-64
2022/09/04 12:16:55;;;;;;;11.65;3.22;;;28.10;97.30;;;;;;4996128;28;20103;-65
2022/09/04 12:19:59;;;;;;;6.30;2.83;;;28.30;95.80;;;;;;4995567;28;20022;-65
2022/09/04 12:22:51;;;;;;;;;;;28.10;95.80;;;;;;4996277;28;20025;-65
2022/09/04 12:25:38;;;;;;;9.70;3.13;;;28.50;95.80;;;;;;4993640;28;19906;-65
2022/09/04 12:28:20;;;;;;;6.65;2.67;;;29.20;94.90;;;;;;4995927;28;20439;-65
2022/09/04 12:31:05;;;;;;;7.93;2.90;;;29.80;94.20;;;;;;4995486;28;20470;-66
2022/09/04 12:33:55;;;;;;;4.90;2.53;;;30.40;92.90;;;;;;4996094;28;20117;-68
2022/09/04 12:36:57;;;;;;;8.20;2.80;;;30.40;92.20;;;;;;4995761;28;20026;-68
2022/09/04 12:40:04;;;;;;;8.05;3.08;;;30.40;93.60;;;;;;4995928;28;20026;-68
2022/09/04 12:42:46;;;;;;;7.75;2.40;;;30.70;91.90;;;;;;4995837;28;20077;-68
2022/09/04 12:45:45;;;;;;;7.18;2.70;;;30.60;91.00;;;;;;4995036;28;20030;-68
2022/09/04 12:48:32;;;;;;;8.93;2.30;;;30.40;90.70;;;;;;4995738;28;20030;-68
2022/09/04 12:51:10;;;;;;;7.47;2.38;;;30.50;91.20;;;;;;4995607;28;20175;-68
2022/09/04 12:53:43;;;;;;;7.47;2.85;;;30.70;90.20;;;;;;4995266;28;20041;-67
2022/09/04 12:56:50;;;;;;;5.18;2.75;;;30.50;90.40;;;;;;4995060;28;20076;-67
2022/09/04 12:59:32;;;;;;;7.85;2.75;;;30.50;90.30;;;;;;4995467;28;20034;-68
2022/09/04 13:02:26;;;;;;;9.68;2.95;;;30.70;89.80;;;;;;4995484;28;20084;-68
2022/09/04 13:05:26;;;;;;;5.95;3.00;;;30.50;90.10;;;;;;4995201;28;20033;-68
2022/09/04 13:07:58;;;;;;;9.98;2.92;;;30.80;89.50;;;;;;4944545;28;20038;-68
2022/09/04 13:10:38;;;;;;;9.55;2.63;;;30.60;89.70;;;;;;4994498;28;20069;-68
2022/09/04 13:13:55;;;;;;;5.88;2.40;;;30.30;88.00;;;;;;4995247;28;20053;-68
2022/09/04 13:16:35;;;;;;;20.27;2.53;;;30.50;89.20;;;;;;4934649;29;20027;-68
2022/09/04 13:19:17;;;;;;;7.65;2.50;;;31.10;86.90;;;;;;4934452;29;20070;-68
2022/09/04 13:22:01;;;;;;;5.07;2.60;;;30.90;88.10;;;;;;4975510;28;20038;-68
2022/09/04 13:24:41;;;;;;;7.22;2.40;;;31.00;85.70;;;;;;4994642;28;20069;-68
2022/09/04 13:27:42;;;;;;;10.00;2.33;;;30.80;84.90;;;;;;4994568;28;20030;-67
2022/09/04 13:30:23;;;;;;;3.88;2.30;;;30.80;85.80;;;;;;4994925;28;20030;-68
2022/09/04 13:33:19;;;;;;;6.68;2.10;;;30.90;85.70;;;;;;4994295;28;20030;-68
2022/09/04 13:36:15;;;;;;;15.60;2.40;;;31.00;85.80;;;;;;4994698;28;20436;-68
2022/09/04 13:39:10;;;;;;;5.53;2.40;;;31.50;84.70;;;;;;4994748;28;20060;-68
2022/09/04 13:42:00;;;;;;;9.77;2.83;;;31.70;84.70;;;;;;4995232;28;20108;-68
2022/09/04 13:44:44;;;;;;;6.60;2.50;;;31.50;82.30;;;;;;4994056;28;20124;-68
2022/09/04 13:47:13;;;;;;;3.53;2.53;;;31.80;82.00;;;;;;4994507;28;20022;-68
2022/09/04 13:49:46;;;;;;;12.02;3.15;;;31.50;80.40;;;;;;4994525;28;20026;-67
2022/09/04 13:52:44;;;;;;;8.50;2.45;;;31.00;81.70;;;;;;4994287;28;20026;-67
2022/09/04 13:55:23;;;;;;;5.57;2.22;;;30.40;82.80;;;;;;4973958;28;20045;-67
2022/09/04 13:57:56;;;;;;;10.68;2.85;;;30.20;83.60;;;;;;4993812;28;20161;-67
2022/09/04 14:00:23;;;;;;;4.60;2.22;;;30.10;83.60;;;;;;4994948;28;20042;-67
2022/09/04 14:02:55;;;;;;;12.18;2.42;;;29.50;83.50;;;;;;4994334;28;20038;-67
2022/09/04 14:05:24;;;;;;;7.57;2.67;;;29.60;84.40;;;;;;4994277;28;20026;-66
2022/09/04 14:08:03;;;;;;;7.60;1.80;;;29.30;84.40;;;;;;5008440;23;20046;-68
2022/09/04 14:10:54;;;;;;;9.20;2.35;;;29.50;83.20;;;;;;4993754;28;20504;-68
2022/09/04 14:13:41;;;;;;;7.32;2.63;;;29.80;82.70;;;;;;4994342;28;20489;-68
2022/09/04 14:16:10;;;;;;;6.03;1.80;;;29.40;83.00;;;;;;4994335;28;20037;-68
2022/09/04 14:19:13;;;;;;;5.65;2.20;;;29.10;85.30;;;;;;4994184;28;20467;-68
2022/09/04 14:22:01;;;;;;;8.20;2.70;;;28.40;85.20;;;;;;4992136;28;20109;-69
2022/09/04 14:24:55;;;;;;;5.25;3.10;;;28.10;86.90;;;;;;4994440;28;20489;-68
2022/09/04 14:27:56;;;;;;;5.15;2.35;;;28.00;86.80;;;;;;4994632;28;20030;-68
2022/09/04 14:30:22;;;;;;;4.63;2.63;;;27.70;87.00;;;;;;4993294;28;20463;-68
2022/09/04 14:33:21;;;;;;;8.63;2.97;;;27.50;88.00;;;;;;4994002;28;20054;-68
2022/09/04 14:35:59;;;;;;;8.05;1.90;;;27.30;88.90;;;;;;4994153;28;20028;-68